createdAt,value
2019-05-26T00:00:35.968Z,0
2019-05-26T00:01:35.987Z,0
2019-05-26T00:02:36.046Z,0
2019-05-26T00:03:36.108Z,0
2019-05-26T00:04:36.111Z,0
2019-05-26T00:05:36.134Z,0
2019-05-26T00:06:36.147Z,0
2019-05-26T00:07:36.222Z,0
2019-05-26T00:08:36.314Z,0
2019-05-26T00:09:36.330Z,0
2019-05-26T00:10:36.341Z,0
2019-05-26T00:11:36.335Z,0
2019-05-26T00:12:36.359Z,0
2019-05-26T00:13:36.499Z,0
2019-05-26T00:14:36.495Z,0
2019-05-26T00:15:36.520Z,0
2019-05-26T00:16:36.535Z,0
2019-05-26T00:17:36.582Z,0
2019-05-26T00:18:36.596Z,0
2019-05-26T00:19:36.600Z,0
2019-05-26T00:20:36.662Z,0
2019-05-26T00:21:36.704Z,0
2019-05-26T00:22:36.698Z,0
2019-05-26T00:23:36.719Z,0
2019-05-26T00:24:36.776Z,0
2019-05-26T00:25:36.773Z,0
2019-05-26T00:26:36.831Z,0
2019-05-26T00:27:36.889Z,0
2019-05-26T00:28:36.962Z,0
2019-05-26T00:29:37.017Z,0
2019-05-26T00:30:37.046Z,0
2019-05-26T00:31:37.061Z,0
2019-05-26T00:32:37.088Z,0
2019-05-26T00:33:37.093Z,0
2019-05-26T00:34:37.128Z,0
2019-05-26T00:35:37.124Z,0
2019-05-26T00:36:37.153Z,0
2019-05-26T00:37:48.901Z,0
2019-05-26T00:38:37.333Z,0
2019-05-26T00:39:37.390Z,0
2019-05-26T00:40:37.379Z,0
2019-05-26T00:41:37.426Z,0
2019-05-26T00:42:37.496Z,0
2019-05-26T00:43:37.524Z,0
2019-05-26T00:44:37.568Z,0
2019-05-26T00:45:37.623Z,0
2019-05-26T00:46:37.662Z,0
2019-05-26T00:47:37.664Z,0
2019-05-26T00:48:37.673Z,0
2019-05-26T00:49:37.855Z,0
2019-05-26T00:50:37.866Z,0
2019-05-26T00:51:37.914Z,0
2019-05-26T00:52:38.020Z,0
2019-05-26T00:53:38.050Z,0
2019-05-26T00:54:38.014Z,0
2019-05-26T00:55:38.050Z,0
2019-05-26T00:56:38.124Z,0
2019-05-26T00:57:38.235Z,0
2019-05-26T00:58:38.418Z,0
2019-05-26T00:59:38.379Z,0
2019-05-26T01:00:38.500Z,0
2019-05-26T01:01:38.509Z,0
2019-05-26T01:02:38.599Z,0
2019-05-26T01:03:38.683Z,0
2019-05-26T01:04:38.693Z,0
2019-05-26T01:05:38.747Z,0
2019-05-26T01:06:38.844Z,0
2019-05-26T01:07:38.870Z,0
2019-05-26T01:08:38.906Z,0
2019-05-26T01:09:39.072Z,0
2019-05-26T01:10:39.010Z,0
2019-05-26T01:11:39.061Z,0
2019-05-26T01:12:39.120Z,0
2019-05-26T01:13:39.140Z,0
2019-05-26T01:14:39.337Z,0
2019-05-26T01:15:39.457Z,0
2019-05-26T01:16:39.441Z,0
2019-05-26T01:17:39.427Z,0
2019-05-26T01:18:39.470Z,0
2019-05-26T01:19:39.645Z,0
2019-05-26T01:20:39.605Z,0
2019-05-26T01:21:39.638Z,0
2019-05-26T01:22:39.734Z,0
2019-05-26T01:23:39.809Z,0
2019-05-26T01:24:39.817Z,0
2019-05-26T01:25:39.856Z,0
2019-05-26T01:26:39.933Z,0
2019-05-26T01:27:40.015Z,0
2019-05-26T01:28:40.080Z,0
2019-05-26T01:29:40.108Z,0
2019-05-26T01:30:40.210Z,0
2019-05-26T01:31:40.287Z,0
2019-05-26T01:32:40.261Z,0
2019-05-26T01:33:40.258Z,0
2019-05-26T01:34:40.278Z,0
2019-05-26T01:35:40.362Z,0
2019-05-26T01:36:40.399Z,0
2019-05-26T01:37:40.427Z,0
2019-05-26T01:38:40.484Z,0
2019-05-26T01:39:40.622Z,0
2019-05-26T01:40:40.733Z,0
2019-05-26T01:41:40.840Z,0
2019-05-26T01:42:40.978Z,0
2019-05-26T01:43:41.070Z,0
2019-05-26T01:44:41.086Z,0
2019-05-26T01:45:41.132Z,0
2019-05-26T01:46:41.190Z,0
2019-05-26T01:47:41.229Z,0
2019-05-26T01:48:41.299Z,0
2019-05-26T01:49:41.419Z,0
2019-05-26T01:50:41.526Z,0
2019-05-26T01:51:41.548Z,0
2019-05-26T01:52:41.666Z,0
2019-05-26T01:53:41.788Z,0
2019-05-26T01:54:41.891Z,0
2019-05-26T01:55:41.982Z,0
2019-05-26T01:56:41.945Z,0
2019-05-26T01:57:42.089Z,0
2019-05-26T01:58:42.278Z,0
2019-05-26T01:59:42.332Z,0
2019-05-26T02:00:43.404Z,0
2019-05-26T02:01:42.493Z,0
2019-05-26T02:02:42.514Z,0
2019-05-26T02:03:42.617Z,0
2019-05-26T02:04:42.769Z,0
2019-05-26T02:05:42.848Z,0
2019-05-26T02:06:42.885Z,0
2019-05-26T02:07:42.973Z,0
2019-05-26T02:08:42.954Z,0
2019-05-26T02:09:43.111Z,0
2019-05-26T02:10:43.120Z,0
2019-05-26T02:11:43.262Z,0
2019-05-26T02:12:43.133Z,0
2019-05-26T02:13:43.103Z,0
2019-05-26T02:14:43.076Z,0
2019-05-26T02:15:43.209Z,0
2019-05-26T02:16:44.199Z,0
2019-05-26T02:17:43.470Z,0
2019-05-26T02:18:43.494Z,0
2019-05-26T02:19:43.553Z,0
2019-05-26T02:20:43.599Z,0
2019-05-26T02:21:43.633Z,0
2019-05-26T02:22:43.794Z,0
2019-05-26T02:23:43.662Z,0
2019-05-26T02:24:43.803Z,0
2019-05-26T02:25:43.831Z,0
2019-05-26T02:26:43.829Z,0
2019-05-26T02:27:43.890Z,0
2019-05-26T02:28:43.897Z,0
2019-05-26T02:29:44.021Z,0
2019-05-26T02:30:44.106Z,0
2019-05-26T02:31:44.230Z,0
2019-05-26T02:32:45.495Z,0
2019-05-26T02:33:44.394Z,0
2019-05-26T02:34:44.555Z,0
2019-05-26T02:35:44.611Z,0
2019-05-26T02:36:44.660Z,0
2019-05-26T02:37:44.944Z,0
2019-05-26T02:39:00.711Z,0
2019-05-26T02:39:45.974Z,0
2019-05-26T02:40:44.983Z,1
2019-05-26T02:41:45.032Z,1
2019-05-26T02:42:46.155Z,1
2019-05-26T02:43:45.303Z,1
2019-05-26T02:44:45.285Z,0
2019-05-26T02:45:45.345Z,1
2019-05-26T02:46:45.402Z,1
2019-05-26T02:47:45.459Z,1
2019-05-26T02:48:45.572Z,2
2019-05-26T02:49:45.643Z,1
2019-05-26T02:50:45.709Z,2
2019-05-26T02:51:45.771Z,2
2019-05-26T02:52:45.844Z,3
2019-05-26T02:53:45.944Z,2
2019-05-26T02:54:46.003Z,3
2019-05-26T02:55:46.059Z,3
2019-05-26T02:56:46.118Z,4
2019-05-26T02:57:46.181Z,4
2019-05-26T02:58:46.271Z,5
2019-05-26T02:59:46.317Z,7
2019-05-26T03:00:46.392Z,7
2019-05-26T03:02:01.897Z,8
2019-05-26T03:02:47.457Z,9
2019-05-26T03:03:46.578Z,10
2019-05-26T03:04:46.641Z,12
2019-05-26T03:05:46.780Z,13
2019-05-26T03:06:46.748Z,15
2019-05-26T03:07:46.816Z,17
2019-05-26T03:08:46.920Z,18
2019-05-26T03:09:47.023Z,21
2019-05-26T03:10:47.138Z,23
2019-05-26T03:11:47.206Z,27
2019-05-26T03:12:47.265Z,29
2019-05-26T03:13:47.332Z,32
2019-05-26T03:14:47.502Z,35
2019-05-26T03:15:47.577Z,39
2019-05-26T03:16:47.638Z,43
2019-05-26T03:17:47.706Z,48
2019-05-26T03:18:47.766Z,52
2019-05-26T03:19:47.880Z,56
2019-05-26T03:20:47.937Z,61
2019-05-26T03:21:47.999Z,67
2019-05-26T03:22:48.056Z,73
2019-05-26T03:23:48.112Z,81
2019-05-26T03:24:48.199Z,88
2019-05-26T03:25:48.268Z,94
2019-05-26T03:26:48.370Z,102
2019-05-26T03:27:48.454Z,114
2019-05-26T03:28:48.538Z,122
2019-05-26T03:29:48.639Z,134
2019-05-26T03:30:48.743Z,143
2019-05-26T03:31:48.820Z,155
2019-05-26T03:32:48.812Z,166
2019-05-26T03:33:48.793Z,180
2019-05-26T03:34:48.820Z,190
2019-05-26T03:35:48.890Z,202
2019-05-26T03:36:48.864Z,214
2019-05-26T03:37:48.860Z,224
2019-05-26T03:38:48.864Z,237
2019-05-26T03:39:48.861Z,247
2019-05-26T03:40:48.894Z,263
2019-05-26T03:41:48.909Z,276
2019-05-26T03:42:48.908Z,291
2019-05-26T03:43:48.921Z,308
2019-05-26T03:44:48.935Z,325
2019-05-26T03:45:48.995Z,356
2019-05-26T03:46:49.018Z,373
2019-05-26T03:47:49.058Z,399
2019-05-26T03:48:49.078Z,419
2019-05-26T03:49:49.099Z,447
2019-05-26T03:50:49.165Z,466
2019-05-26T03:51:49.198Z,483
2019-05-26T03:52:49.224Z,510
2019-05-26T03:53:49.271Z,543
2019-05-26T03:54:49.345Z,560
2019-05-26T03:55:49.458Z,575
2019-05-26T03:56:49.509Z,634
2019-05-26T03:57:49.511Z,658
2019-05-26T03:58:49.536Z,737
2019-05-26T03:59:49.555Z,731
2019-05-26T04:00:49.598Z,798
2019-05-26T04:01:49.607Z,829
2019-05-26T04:02:49.810Z,873
2019-05-26T04:03:49.904Z,883
2019-05-26T04:04:49.944Z,899
2019-05-26T04:05:49.987Z,908
2019-05-26T04:06:50.040Z,918
2019-05-26T04:07:50.052Z,916
2019-05-26T04:08:51.087Z,894
2019-05-26T04:10:03.479Z,871
2019-05-26T04:10:50.199Z,869
2019-05-26T04:11:50.215Z,872
2019-05-26T04:12:50.229Z,875
2019-05-26T04:13:50.310Z,927
2019-05-26T04:14:50.303Z,954
2019-05-26T04:15:50.299Z,963
2019-05-26T04:16:50.354Z,968
2019-05-26T04:17:50.335Z,987
2019-05-26T04:18:50.367Z,1048
2019-05-26T04:19:50.375Z,1041
2019-05-26T04:20:50.370Z,1054
2019-05-26T04:21:50.429Z,1065
2019-05-26T04:22:50.451Z,1060
2019-05-26T04:23:50.478Z,1060
2019-05-26T04:24:51.507Z,1079
2019-05-26T04:25:50.508Z,1084
2019-05-26T04:26:50.553Z,1109
2019-05-26T04:27:50.569Z,1116
2019-05-26T04:28:50.589Z,1120
2019-05-26T04:29:50.586Z,1152
2019-05-26T04:30:50.664Z,1161
2019-05-26T04:31:50.696Z,1200
2019-05-26T04:32:50.694Z,1227
2019-05-26T04:33:50.699Z,1265
2019-05-26T04:34:50.725Z,1238
2019-05-26T04:35:50.763Z,1321
2019-05-26T04:36:50.885Z,1408
2019-05-26T04:37:50.931Z,1419
2019-05-26T04:38:51.016Z,1461
2019-05-26T04:39:51.047Z,1484
2019-05-26T04:40:51.091Z,1510
2019-05-26T04:41:51.135Z,1550
2019-05-26T04:42:51.167Z,1603
2019-05-26T04:43:51.249Z,1606
2019-05-26T04:44:51.306Z,1567
2019-05-26T04:45:51.324Z,1606
2019-05-26T04:46:51.389Z,1640
2019-05-26T04:47:51.473Z,1658
2019-05-26T04:48:51.559Z,1710
2019-05-26T04:49:51.621Z,1764
2019-05-26T04:50:51.663Z,1776
2019-05-26T04:51:51.677Z,1794
2019-05-26T04:53:05.039Z,1790
2019-05-26T04:53:51.727Z,1800
2019-05-26T04:54:51.749Z,1896
2019-05-26T04:55:51.776Z,1942
2019-05-26T04:56:51.796Z,1996
2019-05-26T04:57:51.864Z,2067
2019-05-26T04:58:51.882Z,2096
2019-05-26T04:59:51.912Z,2056
2019-05-26T05:00:51.911Z,2181
2019-05-26T05:01:51.915Z,2175
2019-05-26T05:02:51.953Z,2222
2019-05-26T05:03:51.969Z,2278
2019-05-26T05:04:51.969Z,2329
2019-05-26T05:05:51.987Z,2416
2019-05-26T05:06:51.999Z,2437
2019-05-26T05:07:52.030Z,2489
2019-05-26T05:08:52.040Z,2471
2019-05-26T05:09:52.043Z,2420
2019-05-26T05:10:52.068Z,2424
2019-05-26T05:11:52.097Z,2444
2019-05-26T05:12:52.112Z,2457
2019-05-26T05:13:52.125Z,2494
2019-05-26T05:14:52.138Z,2606
2019-05-26T05:15:52.155Z,2682
2019-05-26T05:16:52.207Z,2749
2019-05-26T05:17:52.268Z,2760
2019-05-26T05:18:52.331Z,2808
2019-05-26T05:19:52.369Z,2845
2019-05-26T05:20:52.386Z,2880
2019-05-26T05:21:52.440Z,2884
2019-05-26T05:22:52.483Z,2896
2019-05-26T05:23:52.595Z,2934
2019-05-26T05:24:52.608Z,2959
2019-05-26T05:25:52.626Z,3023
2019-05-26T05:26:52.627Z,3105
2019-05-26T05:27:52.743Z,3158
2019-05-26T05:28:52.829Z,3043
2019-05-26T05:29:52.863Z,3122
2019-05-26T05:30:52.900Z,3244
2019-05-26T05:31:52.942Z,3218
2019-05-26T05:32:52.988Z,3393
2019-05-26T05:33:53.098Z,3425
2019-05-26T05:34:53.109Z,3572
2019-05-26T05:35:53.155Z,3664
2019-05-26T05:36:53.192Z,3721
2019-05-26T05:37:53.223Z,3767
2019-05-26T05:38:53.263Z,3830
2019-05-26T05:39:53.315Z,3847
2019-05-26T05:40:59.317Z,3979
2019-05-26T05:41:53.336Z,4040
2019-05-26T05:42:53.370Z,4004
2019-05-26T05:43:53.392Z,3951
2019-05-26T05:44:53.405Z,3973
2019-05-26T05:45:53.432Z,4060
2019-05-26T05:46:53.446Z,4059
2019-05-26T05:47:53.456Z,4066
2019-05-26T05:48:53.504Z,4167
2019-05-26T05:49:53.524Z,4202
2019-05-26T05:50:53.544Z,4286
2019-05-26T05:51:53.566Z,4190
2019-05-26T05:52:53.583Z,4273
2019-05-26T05:53:53.625Z,4359
2019-05-26T05:54:53.658Z,4415
2019-05-26T05:55:53.686Z,4473
2019-05-26T05:56:55.692Z,4546
2019-05-26T05:57:53.678Z,4550
2019-05-26T05:58:53.736Z,4520
2019-05-26T05:59:53.750Z,4539
2019-05-26T06:00:53.759Z,4596
2019-05-26T06:01:53.780Z,4652
2019-05-26T06:02:53.824Z,4616
2019-05-26T06:03:53.892Z,4626
2019-05-26T06:04:53.936Z,4647
2019-05-26T06:05:54.005Z,4671
2019-05-26T06:06:54.079Z,4724
2019-05-26T06:07:54.189Z,4783
2019-05-26T06:08:54.304Z,4802
2019-05-26T06:09:54.366Z,4809
2019-05-26T06:10:54.438Z,4826
2019-05-26T06:11:56.957Z,4919
2019-05-26T06:12:54.460Z,4944
2019-05-26T06:13:54.499Z,4928
2019-05-26T06:14:54.592Z,4934
2019-05-26T06:15:54.629Z,4879
2019-05-26T06:16:54.650Z,4871
2019-05-26T06:17:54.705Z,4832
2019-05-26T06:18:54.747Z,4821
2019-05-26T06:19:54.784Z,4827
2019-05-26T06:20:54.795Z,4838
2019-05-26T06:21:54.871Z,4830
2019-05-26T06:22:54.915Z,4804
2019-05-26T06:23:55.001Z,4790
2019-05-26T06:24:55.073Z,4803
2019-05-26T06:25:55.145Z,4825
2019-05-26T06:26:55.182Z,4852
2019-05-26T06:27:55.236Z,4859
2019-05-26T06:28:55.255Z,4857
2019-05-26T06:29:58.674Z,4868
2019-05-26T06:30:55.309Z,4863
2019-05-26T06:31:55.791Z,4872
2019-05-26T06:32:55.361Z,4811
2019-05-26T06:33:55.375Z,4820
2019-05-26T06:34:55.449Z,4801
2019-05-26T06:35:55.504Z,4824
2019-05-26T06:36:55.516Z,4817
2019-05-26T06:37:55.555Z,4847
2019-05-26T06:38:55.561Z,4894
2019-05-26T06:39:55.580Z,4929
2019-05-26T06:40:55.621Z,5087
2019-05-26T06:41:55.660Z,5173
2019-05-26T06:42:55.683Z,5334
2019-05-26T06:43:55.759Z,5467
2019-05-26T06:44:55.769Z,5625
2019-05-26T06:45:55.918Z,5685
2019-05-26T06:46:55.928Z,5825
2019-05-26T06:47:55.974Z,5917
2019-05-26T06:48:56.023Z,6027
2019-05-26T06:49:56.033Z,5570
2019-05-26T06:50:56.073Z,6211
2019-05-26T06:51:56.094Z,6265
2019-05-26T06:52:56.117Z,6345
2019-05-26T06:53:56.129Z,6247
2019-05-26T06:54:56.162Z,6443
2019-05-26T06:55:56.196Z,6314
2019-05-26T06:56:56.208Z,6338
2019-05-26T06:57:56.241Z,6319
2019-05-26T06:58:56.237Z,6340
2019-05-26T06:59:56.413Z,6339
2019-05-26T07:00:56.466Z,6329
2019-05-26T07:01:56.553Z,6253
2019-05-26T07:02:56.571Z,6502
2019-05-26T07:03:56.600Z,6678
2019-05-26T07:04:56.621Z,6873
2019-05-26T07:05:56.656Z,6994
2019-05-26T07:06:56.677Z,6971
2019-05-26T07:07:56.728Z,6964
2019-05-26T07:08:56.805Z,6981
2019-05-26T07:09:57.110Z,6883
2019-05-26T07:10:57.050Z,6744
2019-05-26T07:12:00.080Z,6583
2019-05-26T07:12:57.145Z,6592
2019-05-26T07:13:57.205Z,6618
2019-05-26T07:14:57.245Z,6813
2019-05-26T07:15:57.319Z,6731
2019-05-26T07:16:57.299Z,6791
2019-05-26T07:17:57.333Z,6736
2019-05-26T07:18:57.400Z,6291
2019-05-26T07:19:57.529Z,6445
2019-05-26T07:20:57.637Z,6480
2019-05-26T07:21:57.692Z,6456
2019-05-26T07:22:57.724Z,6541
2019-05-26T07:23:57.821Z,7160
2019-05-26T07:24:57.891Z,11746
2019-05-26T07:25:57.917Z,16336
2019-05-26T07:26:58.083Z,20048
2019-05-26T07:27:58.106Z,25080
2019-05-26T07:28:58.113Z,22256
2019-05-26T07:29:58.236Z,25824
2019-05-26T07:30:58.362Z,24064
2019-05-26T07:31:58.551Z,27208
2019-05-26T07:32:58.600Z,28880
2019-05-26T07:33:58.690Z,25968
2019-05-26T07:34:58.838Z,31992
2019-05-26T07:35:58.860Z,32664
2019-05-26T07:36:59.015Z,30312
2019-05-26T07:37:59.067Z,29880
2019-05-26T07:38:59.097Z,25872
2019-05-26T07:39:59.139Z,20848
2019-05-26T07:40:59.151Z,21952
2019-05-26T07:42:09.745Z,29528
2019-05-26T07:42:59.312Z,44128
2019-05-26T07:43:59.411Z,54344
2019-05-26T07:44:59.556Z,63496
2019-05-26T07:45:59.720Z,60024
2019-05-26T07:46:59.838Z,52016
2019-05-26T07:47:59.995Z,47104
2019-05-26T07:48:59.936Z,43808
2019-05-26T07:50:00.790Z,42488
2019-05-26T07:51:00.261Z,48376
2019-05-26T07:52:00.405Z,56104
2019-05-26T07:53:00.529Z,50640
2019-05-26T07:54:00.536Z,53752
2019-05-26T07:55:00.654Z,51088
2019-05-26T07:56:00.791Z,54680
2019-05-26T07:57:00.939Z,57520
2019-05-26T07:58:01.090Z,59568
2019-05-26T07:59:01.093Z,59112
2019-05-26T08:00:02.230Z,55848
2019-05-26T08:01:01.365Z,54920
2019-05-26T08:02:01.497Z,53160
2019-05-26T08:03:01.683Z,54280
2019-05-26T08:04:01.617Z,57592
2019-05-26T08:05:01.821Z,58640
2019-05-26T08:06:01.742Z,52208
2019-05-26T08:07:01.868Z,53920
2019-05-26T08:08:11.849Z,54656
2019-05-26T08:09:03.078Z,58112
2019-05-26T08:10:02.178Z,54848
2019-05-26T08:11:02.242Z,29864
2019-05-26T08:12:02.516Z,25896
2019-05-26T08:13:03.368Z,26064
2019-05-26T08:14:02.370Z,14828
2019-05-26T08:15:02.523Z,12047
2019-05-26T08:16:02.660Z,11496
2019-05-26T08:17:02.801Z,11128
2019-05-26T08:18:03.113Z,10917
2019-05-26T08:19:02.986Z,11011
2019-05-26T08:20:03.196Z,11202
2019-05-26T08:21:03.249Z,11299
2019-05-26T08:22:03.402Z,11368
2019-05-26T08:23:03.504Z,11364
2019-05-26T08:24:07.365Z,11395
2019-05-26T08:25:03.568Z,11793
2019-05-26T08:26:03.663Z,11789
2019-05-26T08:27:03.801Z,12274
2019-05-26T08:28:03.941Z,12736
2019-05-26T08:29:03.885Z,13776
2019-05-26T08:30:04.122Z,14591
2019-05-26T08:31:04.000Z,14427
2019-05-26T08:32:04.063Z,15291
2019-05-26T08:33:04.157Z,13717
2019-05-26T08:34:04.089Z,13813
2019-05-26T08:35:04.124Z,14100
2019-05-26T08:36:04.257Z,13713
2019-05-26T08:37:04.262Z,12677
2019-05-26T08:38:04.329Z,11701
2019-05-26T08:39:04.355Z,11248
2019-05-26T08:40:04.510Z,11250
2019-05-26T08:41:04.445Z,11287
2019-05-26T08:42:04.697Z,11325
2019-05-26T08:43:04.806Z,11477
2019-05-26T08:44:04.835Z,11769
2019-05-26T08:45:05.307Z,11888
2019-05-26T08:46:04.910Z,12253
2019-05-26T08:47:05.048Z,12632
2019-05-26T08:48:05.055Z,12856
2019-05-26T08:49:05.105Z,12729
2019-05-26T08:50:05.153Z,11832
2019-05-26T08:51:05.181Z,11191
2019-05-26T08:52:05.534Z,11038
2019-05-26T08:53:05.357Z,10977
2019-05-26T08:54:05.543Z,10847
2019-05-26T08:55:05.614Z,10669
2019-05-26T08:56:05.626Z,10335
2019-05-26T08:57:05.686Z,9130
2019-05-26T08:58:05.744Z,7810
2019-05-26T08:59:05.874Z,7039
2019-05-26T09:00:05.880Z,6317
2019-05-26T09:01:05.898Z,6096
2019-05-26T09:02:05.994Z,6167
2019-05-26T09:03:06.001Z,6330
2019-05-26T09:04:06.202Z,7105
2019-05-26T09:05:06.070Z,7502
2019-05-26T09:06:06.183Z,7466
2019-05-26T09:07:06.352Z,7392
2019-05-26T09:08:08.201Z,7563
2019-05-26T09:09:06.311Z,8123
2019-05-26T09:10:06.424Z,8441
2019-05-26T09:11:06.548Z,8689
2019-05-26T09:12:06.583Z,8796
2019-05-26T09:13:06.663Z,8737
2019-05-26T09:14:06.782Z,8503
2019-05-26T09:15:06.828Z,8390
2019-05-26T09:16:06.884Z,8100
2019-05-26T09:17:06.958Z,7457
2019-05-26T09:18:07.037Z,6743
2019-05-26T09:19:07.032Z,6200
2019-05-26T09:20:10.830Z,5742
2019-05-26T09:21:07.301Z,5424
2019-05-26T09:22:07.273Z,5688
2019-05-26T09:23:07.312Z,6201
2019-05-26T09:24:07.348Z,6229
2019-05-26T09:25:07.401Z,5728
2019-05-26T09:26:07.481Z,5268
2019-05-26T09:27:07.429Z,4862
2019-05-26T09:28:07.444Z,4416
2019-05-26T09:29:07.467Z,4102
2019-05-26T09:30:07.489Z,3990
2019-05-26T09:31:07.545Z,3952
2019-05-26T09:32:07.574Z,4054
2019-05-26T09:33:07.587Z,4677
2019-05-26T09:34:07.630Z,5158
2019-05-26T09:35:07.666Z,5769
2019-05-26T09:36:07.813Z,6318
2019-05-26T09:37:07.821Z,6602
2019-05-26T09:38:07.852Z,7046
2019-05-26T09:39:07.879Z,7418
2019-05-26T09:40:07.889Z,7823
2019-05-26T09:41:07.977Z,8313
2019-05-26T09:42:08.026Z,9209
2019-05-26T09:43:15.907Z,9573
2019-05-26T09:44:08.081Z,9910
2019-05-26T09:45:08.123Z,10203
2019-05-26T09:46:08.220Z,10304
2019-05-26T09:47:08.252Z,10551
2019-05-26T09:48:08.286Z,10759
2019-05-26T09:49:08.359Z,10921
2019-05-26T09:50:08.410Z,10951
2019-05-26T09:51:08.453Z,10779
2019-05-26T09:52:21.442Z,10561
2019-05-26T09:53:20.963Z,10651
2019-05-26T09:54:21.068Z,10688
2019-05-26T09:55:21.083Z,10664
2019-05-26T09:56:21.119Z,10587
2019-05-26T09:57:21.155Z,10844
2019-05-26T09:58:21.177Z,11250
2019-05-26T09:59:21.189Z,12186
2019-05-26T10:00:21.366Z,13147
2019-05-26T10:01:21.264Z,13816
2019-05-26T10:02:21.304Z,13742
2019-05-26T10:03:21.312Z,13520
2019-05-26T10:04:21.368Z,13645
2019-05-26T10:05:21.443Z,13656
2019-05-26T10:06:21.521Z,13687
2019-05-26T10:07:21.572Z,13571
2019-05-26T10:08:21.618Z,13286
2019-05-26T10:09:21.676Z,12991
2019-05-26T10:10:21.720Z,12627
2019-05-26T10:11:21.807Z,12313
2019-05-26T10:12:21.869Z,12388
2019-05-26T10:13:31.156Z,11795
2019-05-26T10:14:21.933Z,10853
2019-05-26T10:15:21.946Z,10603
2019-05-26T10:16:22.054Z,10724
2019-05-26T10:17:23.269Z,10516
2019-05-26T10:18:22.090Z,10749
2019-05-26T10:19:22.100Z,11166
2019-05-26T10:20:22.138Z,11634
2019-05-26T10:21:22.134Z,12164
2019-05-26T10:22:22.166Z,12569
2019-05-26T10:23:22.172Z,13167
2019-05-26T10:24:22.166Z,13610
2019-05-26T10:25:22.334Z,13162
2019-05-26T10:26:22.352Z,12687
2019-05-26T10:27:22.521Z,12637
2019-05-26T10:28:22.539Z,12623
2019-05-26T10:29:22.544Z,12608
2019-05-26T10:30:22.562Z,12196
2019-05-26T10:31:22.571Z,12122
2019-05-26T10:32:22.657Z,13220
2019-05-26T10:33:22.653Z,13264
2019-05-26T10:34:22.665Z,13295
2019-05-26T10:35:22.706Z,15021
2019-05-26T10:36:22.702Z,14212
2019-05-26T10:37:22.717Z,12426
2019-05-26T10:38:22.777Z,10896
2019-05-26T10:39:22.859Z,10207
2019-05-26T10:40:22.858Z,10053
2019-05-26T10:41:22.867Z,9981
2019-05-26T10:42:22.890Z,9472
2019-05-26T10:43:22.993Z,9018
2019-05-26T10:44:23.034Z,9502
2019-05-26T10:45:23.021Z,10257
2019-05-26T10:46:23.045Z,11699
2019-05-26T10:47:23.070Z,12719
2019-05-26T10:48:23.101Z,12677
2019-05-26T10:49:23.136Z,12620
2019-05-26T10:50:23.134Z,12610
2019-05-26T10:51:23.152Z,12594
2019-05-26T10:52:23.159Z,12690
2019-05-26T10:53:23.174Z,12677
2019-05-26T10:54:23.201Z,12635
2019-05-26T10:55:23.249Z,12179
2019-05-26T10:56:23.313Z,11799
2019-05-26T10:57:23.341Z,11748
2019-05-26T10:58:23.348Z,11867
2019-05-26T10:59:23.403Z,11492
2019-05-26T11:00:23.400Z,10952
2019-05-26T11:01:23.409Z,11360
2019-05-26T11:02:23.453Z,12697
2019-05-26T11:03:23.480Z,14473
2019-05-26T11:04:23.577Z,14929
2019-05-26T11:05:23.596Z,15285
2019-05-26T11:06:23.660Z,15260
2019-05-26T11:07:26.703Z,14793
2019-05-26T11:08:23.712Z,14521
2019-05-26T11:09:23.771Z,13854
2019-05-26T11:10:23.802Z,12918
2019-05-26T11:11:23.846Z,12481
2019-05-26T11:12:23.865Z,12571
2019-05-26T11:13:23.870Z,13197
2019-05-26T11:14:23.964Z,13004
2019-05-26T11:15:24.161Z,12529
2019-05-26T11:16:24.205Z,11757
2019-05-26T11:17:24.222Z,11206
2019-05-26T11:18:24.292Z,10964
2019-05-26T11:19:24.391Z,10763
2019-05-26T11:20:24.555Z,10520
2019-05-26T11:21:24.417Z,10491
2019-05-26T11:22:24.478Z,10288
2019-05-26T11:23:24.571Z,10384
2019-05-26T11:24:24.715Z,10635
2019-05-26T11:25:24.758Z,10930
2019-05-26T11:26:24.790Z,10994
2019-05-26T11:27:24.814Z,11060
2019-05-26T11:28:24.879Z,11050
2019-05-26T11:29:24.940Z,11038
2019-05-26T11:30:25.045Z,11362
2019-05-26T11:31:25.049Z,11890
2019-05-26T11:32:25.148Z,12289
2019-05-26T11:33:25.214Z,12589
2019-05-26T11:34:25.253Z,12616
2019-05-26T11:35:26.403Z,12614
2019-05-26T11:36:25.534Z,13201
2019-05-26T11:37:25.490Z,14683
2019-05-26T11:38:25.590Z,16776
2019-05-26T11:39:25.596Z,17296
2019-05-26T11:40:25.717Z,17680
2019-05-26T11:41:25.763Z,18336
2019-05-26T11:42:25.854Z,17720
2019-05-26T11:43:25.883Z,17344
2019-05-26T11:44:26.008Z,16256
2019-05-26T11:45:26.106Z,18704
2019-05-26T11:46:26.148Z,21208
2019-05-26T11:47:26.143Z,25208
2019-05-26T11:48:26.137Z,26736
2019-05-26T11:49:26.171Z,28200
2019-05-26T11:50:26.254Z,29336
2019-05-26T11:51:26.309Z,26560
2019-05-26T11:52:26.344Z,26448
2019-05-26T11:53:26.475Z,27488
2019-05-26T11:54:26.497Z,27944
2019-05-26T11:55:27.835Z,28776
2019-05-26T11:56:26.656Z,29176
2019-05-26T11:57:26.762Z,28896
2019-05-26T11:58:26.807Z,27728
2019-05-26T11:59:26.902Z,27984
2019-05-26T12:00:27.023Z,33096
2019-05-26T12:01:27.073Z,31048
2019-05-26T12:02:27.167Z,27528
2019-05-26T12:03:27.213Z,26752
2019-05-26T12:04:27.241Z,35376
2019-05-26T12:05:27.312Z,33712
2019-05-26T12:06:27.384Z,32992
2019-05-26T12:07:27.450Z,28152
2019-05-26T12:08:27.487Z,28224
2019-05-26T12:09:27.664Z,26896
2019-05-26T12:10:27.775Z,22664
2019-05-26T12:11:27.842Z,18224
2019-05-26T12:12:27.919Z,14891
2019-05-26T12:13:27.960Z,12852
2019-05-26T12:14:34.598Z,11444
2019-05-26T12:15:28.062Z,10798
2019-05-26T12:16:28.910Z,10980
2019-05-26T12:17:28.237Z,11354
2019-05-26T12:18:28.334Z,12436
2019-05-26T12:19:28.356Z,13639
2019-05-26T12:20:28.426Z,14950
2019-05-26T12:21:28.504Z,17288
2019-05-26T12:22:28.605Z,20624
2019-05-26T12:23:28.650Z,25768
2019-05-26T12:24:28.764Z,31256
2019-05-26T12:25:28.793Z,41176
2019-05-26T12:26:28.923Z,32576
2019-05-26T12:27:28.945Z,32336
2019-05-26T12:28:28.964Z,33808
2019-05-26T12:29:29.002Z,28176
2019-05-26T12:30:29.072Z,26568
2019-05-26T12:31:29.255Z,24920
2019-05-26T12:32:29.355Z,25800
2019-05-26T12:33:29.411Z,25712
2019-05-26T12:34:29.516Z,26752
2019-05-26T12:35:29.542Z,30376
2019-05-26T12:36:29.610Z,32592
2019-05-26T12:37:29.673Z,27680
2019-05-26T12:38:29.722Z,29184
2019-05-26T12:39:29.759Z,25144
2019-05-26T12:40:29.854Z,23432
2019-05-26T12:41:32.818Z,23176
2019-05-26T12:42:29.950Z,21816
2019-05-26T12:43:29.977Z,21008
2019-05-26T12:44:29.979Z,25248
2019-05-26T12:45:30.045Z,27360
2019-05-26T12:46:30.109Z,20368
2019-05-26T12:47:30.257Z,17072
2019-05-26T12:48:30.296Z,15092
2019-05-26T12:49:30.451Z,14241
2019-05-26T12:50:30.482Z,13234
2019-05-26T12:51:30.542Z,12301
2019-05-26T12:52:30.598Z,12148
2019-05-26T12:53:30.647Z,11685
2019-05-26T12:54:30.648Z,11740
2019-05-26T12:55:30.673Z,11747
2019-05-26T12:56:30.708Z,12277
2019-05-26T12:57:30.825Z,12903
2019-05-26T12:58:30.898Z,13061
2019-05-26T12:59:31.053Z,12641
2019-05-26T13:00:47.318Z,12125
2019-05-26T13:01:31.029Z,11668
2019-05-26T13:02:31.047Z,11628
2019-05-26T13:03:44.177Z,11660
2019-05-26T13:04:31.088Z,11487
2019-05-26T13:05:31.600Z,12126
2019-05-26T13:06:32.849Z,12709
2019-05-26T13:07:31.618Z,14093
2019-05-26T13:08:31.335Z,15270
2019-05-26T13:09:31.366Z,16128
2019-05-26T13:10:31.425Z,18120
2019-05-26T13:11:31.573Z,19752
2019-05-26T13:12:31.705Z,21288
2019-05-26T13:13:31.635Z,22920
2019-05-26T13:16:25.937Z,18680
2019-05-26T13:17:27.062Z,15049
2019-05-26T13:18:26.102Z,14187
2019-05-26T13:19:26.190Z,14278
2019-05-26T13:20:26.271Z,13689
2019-05-26T13:21:26.289Z,12698
2019-05-26T13:22:26.334Z,11907
2019-05-26T13:23:26.526Z,10928
2019-05-26T13:24:26.456Z,9917
2019-05-26T13:25:26.506Z,9069
2019-05-26T13:26:26.658Z,8604
2019-05-26T13:27:26.733Z,9472
2019-05-26T13:28:26.851Z,10711
2019-05-26T13:29:27.166Z,10062
2019-05-26T13:30:26.924Z,9612
2019-05-26T13:31:27.010Z,9108
2019-05-26T13:34:35.759Z,6905